Terminal Aerodrome Forecast
Issued by NWS

Home | Current Version | Previous Version | Text Only | Print | Product List | Glossary On
Versions: 1 2 3 4 5 6 7 8 9 10 11 12 13 14 15
000
FTUS41 KBTV 310827 AAA
TAFMPV
TAF AMD
KMPV 310827Z 3108/0106 VRB03KT P6SM BKN050
      TEMPO 3108/3109 2SM BR SCT002 SCT050
     FM310900 00000KT 1/2SM FG OVC001
     FM311300 26007G14KT P6SM SCT025 BKN040
     FM311700 29010G18KT P6SM SCT040
     FM010000 30005KT P6SM SCT040=

USA.gov is the U.S. government's official web portal to all federal, state and local government web resources and services.